createdAt,value
2023-02-18T00:01:10.301Z,93774.69
2023-02-18T00:02:42.103Z,93769.06
2023-02-18T00:04:14.425Z,93766.97
2023-02-18T00:05:46.393Z,93764.38
2023-02-18T00:07:18.420Z,93761.72
2023-02-18T00:08:50.160Z,93764.16
2023-02-18T00:10:21.687Z,93764.47
2023-02-18T00:11:53.802Z,93767.44
2023-02-18T00:13:25.399Z,93772.00
2023-02-18T00:14:56.954Z,93763.44
2023-02-18T00:16:28.825Z,93765.00
2023-02-18T00:18:00.422Z,93761.22
2023-02-18T00:19:32.359Z,93757.44
2023-02-18T00:21:04.936Z,93760.66
2023-02-18T00:22:36.572Z,93754.69
2023-02-18T00:24:08.573Z,93762.91
2023-02-18T00:25:40.115Z,93748.41
2023-02-18T00:27:11.661Z,93750.75
2023-02-18T00:28:43.329Z,93746.94
2023-02-18T00:30:15.069Z,93744.19
2023-02-18T00:31:46.767Z,93743.09
2023-02-18T00:33:18.360Z,93735.03
2023-02-18T00:34:49.926Z,93732.06
2023-02-18T00:36:22.372Z,93736.09
2023-02-18T00:37:54.079Z,93736.66
2023-02-18T00:39:25.673Z,93726.31
2023-02-18T00:40:57.676Z,93716.28
2023-02-18T00:42:29.426Z,93722.66
2023-02-18T00:44:01.123Z,93721.28
2023-02-18T00:45:32.641Z,93719.66
2023-02-18T00:47:04.636Z,93714.31
2023-02-18T00:48:36.154Z,93705.75
2023-02-18T00:50:08.158Z,93703.31
2023-02-18T00:51:39.742Z,93699.59
2023-02-18T00:53:11.444Z,93691.84
2023-02-18T00:54:43.035Z,93691.84
2023-02-18T00:56:14.557Z,93691.41
2023-02-18T00:57:46.166Z,93695.53
2023-02-18T00:59:17.662Z,93695.63
2023-02-18T01:00:49.226Z,93701.78
2023-02-18T01:02:20.699Z,93700.31
2023-02-18T01:03:52.223Z,93700.91
2023-02-18T01:05:23.730Z,93693.25
2023-02-18T01:06:55.738Z,93697.84
2023-02-18T01:08:27.191Z,93696.88
2023-02-18T01:09:59.378Z,93685.47
2023-02-18T01:11:30.948Z,93686.34
2023-02-18T01:13:04.468Z,93685.91
2023-02-18T01:14:36.038Z,93681.69
2023-02-18T01:16:08.138Z,93678.25
2023-02-18T01:17:40.070Z,93666.56
2023-02-18T01:19:11.768Z,93666.88
2023-02-18T01:20:43.695Z,93676.50
2023-02-18T01:22:15.284Z,93670.09
2023-02-18T01:23:47.027Z,93672.00
2023-02-18T01:25:18.672Z,93670.69
2023-02-18T01:26:50.608Z,93679.75
2023-02-18T01:28:25.257Z,93674.69
2023-02-18T01:29:57.466Z,93676.03
2023-02-18T01:31:29.096Z,93679.00
2023-02-18T01:33:03.097Z,93680.66
2023-02-18T01:34:34.686Z,93679.84
2023-02-18T01:36:07.016Z,93686.53
2023-02-18T01:37:38.923Z,93684.13
2023-02-18T01:39:10.457Z,93679.88
2023-02-18T01:40:48.960Z,93680.94
2023-02-18T01:42:25.972Z,93683.06
2023-02-18T01:44:16.008Z,93685.69
2023-02-18T01:45:52.656Z,93675.28
2023-02-18T01:47:24.342Z,93679.81
2023-02-18T01:48:59.282Z,93682.97
2023-02-18T01:50:31.250Z,93681.31
2023-02-18T01:52:04.538Z,93686.06
2023-02-18T01:53:37.939Z,93685.25
2023-02-18T01:55:09.554Z,93678.56
2023-02-18T01:56:48.821Z,93680.47
2023-02-18T01:58:20.410Z,93677.59
2023-02-18T01:59:56.077Z,93678.16
2023-02-18T02:01:27.715Z,93687.25
2023-02-18T02:02:59.282Z,93690.47
2023-02-18T02:04:31.328Z,93693.41
2023-02-18T02:06:02.892Z,93691.78
2023-02-18T02:07:34.890Z,93707.47
2023-02-18T02:09:06.948Z,93709.81
2023-02-18T02:10:45.619Z,93703.88
2023-02-18T02:12:17.165Z,93710.72
2023-02-18T02:13:48.773Z,93705.06
2023-02-18T02:15:20.344Z,93706.03
2023-02-18T02:17:03.872Z,93712.63
2023-02-18T02:18:39.308Z,93713.16
2023-02-18T02:20:17.436Z,93711.50
2023-02-18T02:22:07.817Z,93709.03
2023-02-18T02:23:45.888Z,93703.09
2023-02-18T02:25:23.740Z,93709.78
2023-02-18T02:27:14.149Z,93712.94
2023-02-18T02:29:00.867Z,93715.28
2023-02-18T02:30:53.822Z,93711.97
2023-02-18T02:32:25.265Z,93712.06
2023-02-18T02:33:57.275Z,93712.75
2023-02-18T02:35:38.282Z,93709.44
2023-02-18T02:37:14.755Z,93720.16
2023-02-18T02:38:52.521Z,93701.28
2023-02-18T02:40:36.372Z,93710.66
2023-02-18T02:42:10.994Z,93702.50
2023-02-18T02:44:11.727Z,93711.53
2023-02-18T02:45:59.500Z,93707.03
2023-02-18T02:47:38.834Z,93696.13
2023-02-18T02:49:33.280Z,93697.72
2023-02-18T02:51:04.916Z,93704.16
2023-02-18T02:52:44.546Z,93700.38
2023-02-18T02:54:23.646Z,93694.81
2023-02-18T02:55:56.636Z,93705.72
2023-02-18T02:57:28.619Z,93706.50
2023-02-18T02:59:01.015Z,93697.25
2023-02-18T03:00:52.901Z,93700.84
2023-02-18T03:02:37.645Z,93685.06
2023-02-18T03:04:15.390Z,93692.94
2023-02-18T03:06:07.121Z,93692.97
2023-02-18T03:07:57.654Z,93692.78
2023-02-18T03:09:29.695Z,93691.19
2023-02-18T03:11:04.168Z,93688.09
2023-02-18T03:12:38.795Z,93686.38
2023-02-18T03:14:15.576Z,93686.56
2023-02-18T03:15:51.145Z,93681.91
2023-02-18T03:17:23.963Z,93684.81
2023-02-18T03:19:21.751Z,93687.53
2023-02-18T03:21:01.646Z,93690.41
2023-02-18T03:22:34.271Z,93693.06
2023-02-18T03:24:08.760Z,93693.53
2023-02-18T03:25:40.479Z,93691.19
2023-02-18T03:27:14.260Z,93693.09
2023-02-18T03:28:45.904Z,93687.09
2023-02-18T03:30:18.380Z,93693.03
2023-02-18T03:31:51.433Z,93692.22
2023-02-18T03:33:25.272Z,93696.69
2023-02-18T03:34:58.321Z,93692.00
2023-02-18T03:36:29.914Z,93690.75
2023-02-18T03:38:02.970Z,93695.72
2023-02-18T03:39:34.690Z,93703.84
2023-02-18T03:41:06.287Z,93709.13
2023-02-18T03:42:37.870Z,93709.53
2023-02-18T03:44:09.528Z,93714.22
2023-02-18T03:45:41.248Z,93715.69
2023-02-18T03:47:12.846Z,93720.38
2023-02-18T03:48:44.624Z,93722.72
2023-02-18T03:50:16.639Z,93725.38
2023-02-18T03:51:48.522Z,93730.69
2023-02-18T03:53:20.507Z,93720.84
2023-02-18T03:54:52.350Z,93726.16
2023-02-18T03:56:24.065Z,93721.97
2023-02-18T03:57:55.615Z,93724.94
2023-02-18T03:59:27.256Z,93731.00
2023-02-18T04:00:59.275Z,93734.44
2023-02-18T04:02:30.988Z,93731.50
2023-02-18T04:04:03.358Z,93737.53
2023-02-18T04:05:35.044Z,93747.84
2023-02-18T04:07:06.528Z,93745.56
2023-02-18T04:08:38.066Z,93745.00
2023-02-18T04:10:09.803Z,93743.72
2023-02-18T04:11:41.400Z,93750.59
2023-02-18T04:13:13.016Z,93745.19
2023-02-18T04:14:45.276Z,93752.25
2023-02-18T04:16:16.846Z,93754.25
2023-02-18T04:17:48.792Z,93746.75
2023-02-18T04:19:20.397Z,93746.94
2023-02-18T04:20:51.981Z,93751.91
2023-02-18T04:22:23.457Z,93744.66
2023-02-18T04:23:55.004Z,93750.44
2023-02-18T04:25:26.443Z,93751.97
2023-02-18T04:26:58.098Z,93745.78
2023-02-18T04:28:29.688Z,93741.16
2023-02-18T04:30:01.281Z,93746.94
2023-02-18T04:31:32.914Z,93749.75
2023-02-18T04:33:04.370Z,93744.50
2023-02-18T04:34:36.466Z,93747.06
2023-02-18T04:36:08.709Z,93745.81
2023-02-18T04:37:40.406Z,93750.44
2023-02-18T04:39:11.898Z,93752.19
2023-02-18T04:40:43.395Z,93740.69
2023-02-18T04:42:14.867Z,93740.81
2023-02-18T04:43:46.608Z,93738.75
2023-02-18T04:45:18.092Z,93736.47
2023-02-18T04:46:49.626Z,93743.53
2023-02-18T04:48:21.182Z,93740.97
2023-02-18T04:49:52.654Z,93732.72
2023-02-18T04:51:24.343Z,93733.16
2023-02-18T04:52:55.980Z,93744.00
2023-02-18T04:54:27.575Z,93742.03
2023-02-18T04:55:59.580Z,93748.28
2023-02-18T04:57:31.083Z,93738.72
2023-02-18T04:59:02.671Z,93737.09
2023-02-18T05:00:34.138Z,93743.19
2023-02-18T05:02:05.766Z,93738.47
2023-02-18T05:03:37.195Z,93739.88
2023-02-18T05:05:09.058Z,93730.06
2023-02-18T05:06:43.041Z,93738.56
2023-02-18T05:08:16.355Z,93734.88
2023-02-18T05:09:47.869Z,93732.47
2023-02-18T05:11:19.321Z,93737.75
2023-02-18T05:12:50.898Z,93735.38
2023-02-18T05:14:22.457Z,93739.38
2023-02-18T05:15:54.001Z,93735.69
2023-02-18T05:17:25.510Z,93737.75
2023-02-18T05:18:57.132Z,93735.69
2023-02-18T05:20:28.833Z,93736.28
2023-02-18T05:22:00.413Z,93739.50
2023-02-18T05:23:31.920Z,93737.66
2023-02-18T05:25:03.512Z,93748.63
2023-02-18T05:26:35.056Z,93739.38
2023-02-18T05:28:06.648Z,93729.47
2023-02-18T05:29:38.204Z,93736.03
2023-02-18T05:31:09.860Z,93742.16
2023-02-18T05:32:41.578Z,93739.50
2023-02-18T05:34:13.321Z,93740.31
2023-02-18T05:35:44.804Z,93740.31
2023-02-18T05:37:18.601Z,93741.56
2023-02-18T05:38:50.040Z,93739.97
2023-02-18T05:40:21.521Z,93739.38
2023-02-18T05:41:53.018Z,93740.19
2023-02-18T05:43:24.553Z,93742.03
2023-02-18T05:44:56.079Z,93738.56
2023-02-18T05:46:28.918Z,93744.38
2023-02-18T05:48:01.493Z,93739.28
2023-02-18T05:49:33.152Z,93739.88
2023-02-18T05:51:04.843Z,93739.72
2023-02-18T05:52:36.536Z,93739.50
2023-02-18T05:54:08.121Z,93735.59
2023-02-18T05:55:39.737Z,93738.56
2023-02-18T05:57:11.643Z,93742.13
2023-02-18T05:58:43.206Z,93739.25
2023-02-18T06:00:14.802Z,93745.00
2023-02-18T06:01:46.654Z,93742.22
2023-02-18T06:03:18.216Z,93734.38
2023-02-18T06:04:49.806Z,93732.63
2023-02-18T06:06:21.610Z,93741.50
2023-02-18T06:07:55.209Z,93731.78
2023-02-18T06:09:27.885Z,93740.06
2023-02-18T06:10:59.849Z,93739.38
2023-02-18T06:12:31.463Z,93749.03
2023-02-18T06:14:03.086Z,93741.19
2023-02-18T06:15:34.664Z,93742.75
2023-02-18T06:17:06.420Z,93739.09
2023-02-18T06:18:37.953Z,93738.22
2023-02-18T06:20:09.792Z,93737.69
2023-02-18T06:21:41.295Z,93745.66
2023-02-18T06:23:12.921Z,93746.72
2023-02-18T06:24:44.613Z,93749.63
2023-02-18T06:26:16.122Z,93743.69
2023-02-18T06:27:47.728Z,93747.97
2023-02-18T06:29:19.394Z,93737.84
2023-02-18T06:30:50.882Z,93742.59
2023-02-18T06:32:22.604Z,93737.78
2023-02-18T06:33:54.239Z,93750.47
2023-02-18T06:35:25.988Z,93740.78
2023-02-18T06:36:58.519Z,93743.63
2023-02-18T06:38:30.972Z,93748.06
2023-02-18T06:40:02.489Z,93746.59
2023-02-18T06:41:34.240Z,93756.84
2023-02-18T06:43:05.720Z,93759.81
2023-02-18T06:44:38.130Z,93756.59
2023-02-18T06:46:10.104Z,93756.50
2023-02-18T06:47:41.863Z,93753.00
2023-02-18T06:49:13.379Z,93760.25
2023-02-18T06:50:44.922Z,93756.31
2023-02-18T06:52:16.583Z,93758.75
2023-02-18T06:53:48.178Z,93749.19
2023-02-18T06:55:19.784Z,93753.25
2023-02-18T06:56:51.391Z,93760.50
2023-02-18T06:58:23.596Z,93761.56
2023-02-18T06:59:55.380Z,93752.06
2023-02-18T07:01:27.453Z,93747.06
2023-02-18T07:02:59.031Z,93746.00
2023-02-18T07:04:30.965Z,93753.56
2023-02-18T07:06:03.061Z,93754.63
2023-02-18T07:07:34.730Z,93744.56
2023-02-18T07:09:06.490Z,93746.69
2023-02-18T07:10:38.448Z,93738.97
2023-02-18T07:12:10.054Z,93743.31
2023-02-18T07:13:41.707Z,93741.69
2023-02-18T07:15:13.374Z,93743.34
2023-02-18T07:16:45.038Z,93745.22
2023-02-18T07:18:17.077Z,93747.09
2023-02-18T07:19:49.139Z,93746.03
2023-02-18T07:21:20.771Z,93749.75
2023-02-18T07:22:52.665Z,93758.03
2023-02-18T07:24:24.273Z,93755.66
2023-02-18T07:26:06.183Z,93760.22
2023-02-18T07:27:38.001Z,93755.94
2023-02-18T07:29:09.717Z,93754.09
2023-02-18T07:30:41.482Z,93757.31
2023-02-18T07:32:13.498Z,93758.88
2023-02-18T07:33:45.112Z,93758.13
2023-02-18T07:35:17.483Z,93748.25
2023-02-18T07:36:49.187Z,93744.25
2023-02-18T07:38:21.339Z,93743.50
2023-02-18T07:39:53.358Z,93754.25
2023-02-18T07:41:25.045Z,93748.66
2023-02-18T07:42:56.969Z,93746.53
2023-02-18T07:44:28.767Z,93752.44
2023-02-18T07:46:00.386Z,93750.59
2023-02-18T07:47:32.204Z,93745.81
2023-02-18T07:49:04.632Z,93746.94
2023-02-18T07:50:38.145Z,93739.16
2023-02-18T07:52:09.790Z,93747.75
2023-02-18T07:53:41.537Z,93745.53
2023-02-18T07:55:13.438Z,93740.72
2023-02-18T07:56:45.859Z,93740.19
2023-02-18T07:58:18.491Z,93739.41
2023-02-18T07:59:50.100Z,93740.19
2023-02-18T08:01:21.737Z,93745.78
2023-02-18T08:02:54.063Z,93737.47
2023-02-18T08:04:25.647Z,93743.34
2023-02-18T08:05:57.817Z,93744.41
2023-02-18T08:07:29.673Z,93744.19
2023-02-18T08:09:01.774Z,93739.63
2023-02-18T08:10:33.832Z,93748.22
2023-02-18T08:12:06.040Z,93740.50
2023-02-18T08:13:38.140Z,93738.94
2023-02-18T08:15:10.087Z,93738.91
2023-02-18T08:16:41.994Z,93739.97
2023-02-18T08:18:17.483Z,93735.94
2023-02-18T08:19:49.718Z,93740.94
2023-02-18T08:21:21.997Z,93736.56
2023-02-18T08:22:53.676Z,93737.84
2023-02-18T08:24:25.300Z,93738.28
2023-02-18T08:25:56.881Z,93740.94
2023-02-18T08:27:28.803Z,93740.88
2023-02-18T08:29:00.452Z,93736.78
2023-02-18T08:30:32.981Z,93736.22
2023-02-18T08:32:05.184Z,93731.41
2023-02-18T08:33:37.194Z,93732.47
2023-02-18T08:35:10.377Z,93726.00
2023-02-18T08:36:42.536Z,93725.16
2023-02-18T08:38:14.435Z,93725.66
2023-02-18T08:39:46.440Z,93730.22
2023-02-18T08:41:23.107Z,93728.84
2023-02-18T08:42:55.912Z,93724.53
2023-02-18T08:44:28.492Z,93734.19
2023-02-18T08:46:04.222Z,93728.28
2023-02-18T08:48:17.201Z,93738.47
2023-02-18T08:49:29.824Z,93736.03
2023-02-18T08:51:11.210Z,93737.59
2023-02-18T08:52:43.853Z,93737.84
2023-02-18T08:54:16.159Z,93742.59
2023-02-18T08:55:49.389Z,93745.00
2023-02-18T08:57:22.257Z,93750.00
2023-02-18T08:58:54.720Z,93752.34
2023-02-18T09:00:26.655Z,93743.91
2023-02-18T09:01:58.990Z,93743.34
2023-02-18T09:03:31.472Z,93750.00
2023-02-18T09:05:04.999Z,93754.25
2023-02-18T09:06:42.112Z,93740.28
2023-02-18T09:08:14.497Z,93737.22
2023-02-18T09:09:47.098Z,93732.53
2023-02-18T09:11:20.532Z,93740.25
2023-02-18T09:12:58.082Z,93746.69
2023-02-18T09:14:31.191Z,93745.31
2023-02-18T09:16:04.891Z,93741.81
2023-02-18T09:17:37.442Z,93732.84
2023-02-18T09:19:09.560Z,93732.22
2023-02-18T09:20:42.172Z,93728.97
2023-02-18T09:22:14.203Z,93732.88
2023-02-18T09:23:47.147Z,93725.50
2023-02-18T09:25:19.332Z,93722.91
2023-02-18T09:26:52.267Z,93714.69
2023-02-18T09:28:24.151Z,93712.63
2023-02-18T09:29:56.596Z,93718.75
2023-02-18T09:31:29.456Z,93714.88
2023-02-18T09:33:01.938Z,93716.19
2023-02-18T09:34:34.924Z,93720.72
2023-02-18T09:36:08.015Z,93714.97
2023-02-18T09:37:42.669Z,93718.50
2023-02-18T09:39:14.835Z,93723.16
2023-02-18T09:40:48.346Z,93725.16
2023-02-18T09:42:21.865Z,93720.19
2023-02-18T09:43:54.165Z,93720.41
2023-02-18T09:45:26.049Z,93710.94
2023-02-18T09:47:03.973Z,93719.66
2023-02-18T09:48:35.906Z,93713.06
2023-02-18T09:50:23.305Z,93707.72
2023-02-18T09:51:55.149Z,93706.34
2023-02-18T09:53:27.113Z,93702.34
2023-02-18T09:54:59.034Z,93704.22
2023-02-18T09:56:32.241Z,93703.53
2023-02-18T09:58:04.931Z,93704.31
2023-02-18T09:59:36.831Z,93706.91
2023-02-18T10:01:17.734Z,93706.81
2023-02-18T10:02:56.617Z,93708.50
2023-02-18T10:04:32.347Z,93706.97
2023-02-18T10:06:04.478Z,93709.38
2023-02-18T10:07:37.945Z,93692.50
2023-02-18T10:09:30.597Z,93686.31
2023-02-18T10:11:02.366Z,93686.69
2023-02-18T10:12:35.169Z,93703.19
2023-02-18T10:14:10.150Z,93687.13
2023-02-18T10:15:43.162Z,93689.13
2023-02-18T10:17:15.398Z,93690.22
2023-02-18T10:18:49.381Z,93691.53
2023-02-18T10:20:22.879Z,93686.47
2023-02-18T10:21:54.708Z,93687.56
2023-02-18T10:23:27.469Z,93682.03
2023-02-18T10:25:00.631Z,93680.34
2023-02-18T10:26:34.257Z,93678.50
2023-02-18T10:28:06.030Z,93674.25
2023-02-18T10:29:37.783Z,93674.16
2023-02-18T10:31:11.684Z,93670.00
2023-02-18T10:32:43.905Z,93668.06
2023-02-18T10:34:18.620Z,93672.66
2023-02-18T10:35:53.948Z,93676.69
2023-02-18T10:37:44.104Z,93663.28
2023-02-18T10:39:15.908Z,93663.38
2023-02-18T10:40:58.515Z,93656.13
2023-02-18T10:42:52.527Z,93637.09
2023-02-18T10:44:31.233Z,93633.78
2023-02-18T10:46:13.235Z,93642.91
2023-02-18T10:48:21.523Z,93634.59
2023-02-18T10:50:03.921Z,93638.28
2023-02-18T10:51:36.126Z,93633.69
2023-02-18T10:53:28.207Z,93634.16
2023-02-18T10:55:01.337Z,93632.06
2023-02-18T10:56:35.844Z,93629.19
2023-02-18T10:58:26.556Z,93631.63
2023-02-18T10:59:59.898Z,93628.94
2023-02-18T11:01:32.116Z,93631.00
2023-02-18T11:03:03.834Z,93627.66
2023-02-18T11:04:37.494Z,93630.53
2023-02-18T11:06:29.763Z,93631.50
2023-02-18T11:08:02.945Z,93625.41
2023-02-18T11:09:42.053Z,93615.53
2023-02-18T11:11:18.175Z,93621.25
2023-02-18T11:12:50.915Z,93619.81
2023-02-18T11:14:36.549Z,93611.66
2023-02-18T11:16:09.670Z,93612.47
2023-02-18T11:17:42.087Z,93612.59
2023-02-18T11:19:32.478Z,93611.31
2023-02-18T11:21:24.450Z,93610.16
2023-02-18T11:23:08.350Z,93606.88
2023-02-18T11:24:40.326Z,93604.53
2023-02-18T11:26:12.984Z,93595.16
2023-02-18T11:27:45.883Z,93605.03
2023-02-18T11:29:20.960Z,93597.97
2023-02-18T11:30:57.296Z,93597.91
2023-02-18T11:32:29.702Z,93595.50
2023-02-18T11:34:01.553Z,93605.88
2023-02-18T11:35:33.304Z,93598.84
2023-02-18T11:37:12.218Z,93588.88
2023-02-18T11:38:56.579Z,93588.81
2023-02-18T11:40:29.658Z,93590.69
2023-02-18T11:42:07.623Z,93592.56
2023-02-18T11:43:42.898Z,93583.22
2023-02-18T11:45:27.595Z,93583.28
2023-02-18T11:47:14.996Z,93579.75
2023-02-18T11:48:50.094Z,93579.03
2023-02-18T11:50:22.731Z,93578.25
2023-02-18T11:51:54.787Z,93573.63
2023-02-18T11:53:26.485Z,93564.47
2023-02-18T11:55:16.940Z,93563.22
2023-02-18T11:56:59.129Z,93556.78
2023-02-18T11:58:41.056Z,93559.06
2023-02-18T12:00:35.936Z,93559.63
2023-02-18T12:02:10.690Z,93554.28
2023-02-18T12:03:45.879Z,93551.66
2023-02-18T12:05:19.398Z,93549.81
2023-02-18T12:06:51.458Z,93541.53
2023-02-18T12:08:24.761Z,93535.03
2023-02-18T12:09:57.857Z,93535.66
2023-02-18T12:11:32.009Z,93540.22
2023-02-18T12:13:04.303Z,93538.84
2023-02-18T12:14:36.375Z,93530.25
2023-02-18T12:16:10.952Z,93526.50
2023-02-18T12:18:12.969Z,93529.22
2023-02-18T12:20:00.422Z,93520.19
2023-02-18T12:21:50.787Z,93526.44
2023-02-18T12:23:25.672Z,93524.06
2023-02-18T12:25:16.352Z,93510.19
2023-02-18T12:27:04.372Z,93501.94
2023-02-18T12:28:54.178Z,93502.84
2023-02-18T12:30:29.321Z,93489.72
2023-02-18T12:32:19.371Z,93493.13
2023-02-18T12:33:56.796Z,93489.94
2023-02-18T12:35:31.701Z,93496.75
2023-02-18T12:37:09.808Z,93489.75
2023-02-18T12:39:00.425Z,93497.09
2023-02-18T12:40:46.181Z,93493.59
2023-02-18T12:42:18.098Z,93492.09
2023-02-18T12:43:56.726Z,93489.94
2023-02-18T12:45:50.410Z,93493.03
2023-02-18T12:47:45.485Z,93492.34
2023-02-18T12:49:24.580Z,93486.56
2023-02-18T12:51:14.707Z,93485.00
2023-02-18T12:52:58.641Z,93485.88
2023-02-18T12:54:37.959Z,93484.75
2023-02-18T12:56:10.746Z,93484.75
2023-02-18T12:57:42.813Z,93478.53
2023-02-18T12:59:14.904Z,93487.56
2023-02-18T13:00:49.626Z,93480.88
2023-02-18T13:02:25.057Z,93483.16
2023-02-18T13:04:15.198Z,93478.84
2023-02-18T13:06:02.210Z,93482.47
2023-02-18T13:07:36.797Z,93475.22
2023-02-18T13:09:18.160Z,93473.75
2023-02-18T13:10:52.775Z,93473.75
2023-02-18T13:12:38.091Z,93477.81
2023-02-18T13:14:14.206Z,93473.16
2023-02-18T13:15:53.047Z,93467.28
2023-02-18T13:17:26.541Z,93467.97
2023-02-18T13:19:17.070Z,93475.00
2023-02-18T13:20:50.374Z,93464.44
2023-02-18T13:22:23.366Z,93468.41
2023-02-18T13:23:58.199Z,93478.13
2023-02-18T13:25:29.956Z,93470.97
2023-02-18T13:27:07.532Z,93477.88
2023-02-18T13:28:44.350Z,93473.72
2023-02-18T13:30:34.662Z,93471.22
2023-02-18T13:32:08.160Z,93475.09
2023-02-18T13:33:39.972Z,93471.91
2023-02-18T13:35:33.258Z,93471.09
2023-02-18T13:37:27.337Z,93467.69
2023-02-18T13:39:01.671Z,93468.53
2023-02-18T13:40:34.018Z,93463.44
2023-02-18T13:42:18.079Z,93460.16
2023-02-18T13:43:49.809Z,93464.94
2023-02-18T13:45:31.566Z,93465.25
2023-02-18T13:47:03.213Z,93462.53
2023-02-18T13:48:36.492Z,93468.53
2023-02-18T13:50:34.474Z,93461.66
2023-02-18T13:52:06.380Z,93467.69
2023-02-18T13:53:39.011Z,93462.91
2023-02-18T13:55:20.718Z,93468.75
2023-02-18T13:56:58.861Z,93466.47
2023-02-18T13:58:49.336Z,93458.84
2023-02-18T14:00:22.510Z,93466.50
2023-02-18T14:01:54.355Z,93455.13
2023-02-18T14:03:38.274Z,93450.28
2023-02-18T14:05:10.333Z,93451.44
2023-02-18T14:06:44.181Z,93449.00
2023-02-18T14:08:16.358Z,93449.91
2023-02-18T14:09:48.760Z,93449.91
2023-02-18T14:11:20.650Z,93449.09
2023-02-18T14:12:58.336Z,93446.34
2023-02-18T14:14:32.283Z,93443.72
2023-02-18T14:16:04.062Z,93443.19
2023-02-18T14:17:37.878Z,93449.19
2023-02-18T14:19:25.921Z,93450.84
2023-02-18T14:21:17.887Z,93451.84
2023-02-18T14:22:50.496Z,93456.31
2023-02-18T14:24:42.092Z,93451.69
2023-02-18T14:26:14.485Z,93443.91
2023-02-18T14:27:46.081Z,93444.00
2023-02-18T14:29:21.096Z,93443.81
2023-02-18T14:30:53.169Z,93440.66
2023-02-18T14:32:25.155Z,93443.22
2023-02-18T14:34:00.968Z,93441.63
2023-02-18T14:35:37.529Z,93446.06
2023-02-18T14:37:31.751Z,93446.41
2023-02-18T14:39:07.692Z,93441.91
2023-02-18T14:40:49.159Z,93442.09
2023-02-18T14:42:36.710Z,93442.97
2023-02-18T14:44:11.632Z,93438.81
2023-02-18T14:46:02.182Z,93442.31
2023-02-18T14:47:39.754Z,93436.59
2023-02-18T14:49:17.286Z,93437.13
2023-02-18T14:50:52.933Z,93437.84
2023-02-18T14:52:36.623Z,93441.59
2023-02-18T14:54:13.500Z,93440.44
2023-02-18T14:55:49.510Z,93445.78
2023-02-18T14:57:24.211Z,93445.03
2023-02-18T14:58:59.656Z,93435.63
2023-02-18T15:00:33.779Z,93447.44
2023-02-18T15:02:10.036Z,93433.75
2023-02-18T15:03:42.056Z,93431.97
2023-02-18T15:05:17.053Z,93430.06
2023-02-18T15:06:57.889Z,93430.25
2023-02-18T15:08:29.774Z,93431.97
2023-02-18T15:10:01.369Z,93422.38
2023-02-18T15:11:37.200Z,93429.09
2023-02-18T15:13:10.155Z,93430.47
2023-02-18T15:14:42.388Z,93435.72
2023-02-18T15:16:19.008Z,93435.19
2023-02-18T15:17:50.561Z,93434.56
2023-02-18T15:19:23.139Z,93436.47
2023-02-18T15:20:55.637Z,93435.03
2023-02-18T15:22:27.721Z,93436.94
2023-02-18T15:24:01.332Z,93435.34
2023-02-18T15:25:33.197Z,93433.44
2023-02-18T15:27:25.216Z,93428.66
2023-02-18T15:29:00.946Z,93433.97
2023-02-18T15:30:33.148Z,93430.34
2023-02-18T15:32:16.941Z,93430.06
2023-02-18T15:33:48.819Z,93437.88
2023-02-18T15:35:20.751Z,93431.63
2023-02-18T15:36:52.720Z,93425.63
2023-02-18T15:38:24.688Z,93425.78
2023-02-18T15:39:56.430Z,93420.22
2023-02-18T15:41:29.933Z,93422.81
2023-02-18T15:43:02.250Z,93416.94
2023-02-18T15:44:34.631Z,93429.06
2023-02-18T15:46:10.852Z,93420.47
2023-02-18T15:47:42.703Z,93419.41
2023-02-18T15:49:15.512Z,93421.63
2023-02-18T15:50:51.688Z,93430.41
2023-02-18T15:52:36.409Z,93427.06
2023-02-18T15:54:12.704Z,93431.84
2023-02-18T15:55:46.763Z,93427.41
2023-02-18T15:57:18.432Z,93424.53
2023-02-18T15:58:50.218Z,93427.09
2023-02-18T16:00:26.773Z,93423.91
2023-02-18T16:02:04.224Z,93427.09
2023-02-18T16:03:36.023Z,93413.28
2023-02-18T16:05:12.934Z,93418.72
2023-02-18T16:06:47.494Z,93414.56
2023-02-18T16:08:28.517Z,93420.47
2023-02-18T16:10:18.940Z,93424.78
2023-02-18T16:11:52.156Z,93419.03
2023-02-18T16:13:26.449Z,93411.09
2023-02-18T16:15:00.290Z,93428.06
2023-02-18T16:16:35.905Z,93424.09
2023-02-18T16:18:07.650Z,93425.03
2023-02-18T16:19:45.011Z,93422.50
2023-02-18T16:21:20.944Z,93421.34
2023-02-18T16:22:53.246Z,93419.75
2023-02-18T16:24:28.624Z,93421.47
2023-02-18T16:26:09.562Z,93432.25
2023-02-18T16:28:07.549Z,93426.81
2023-02-18T16:33:09.538Z,93426.28
2023-02-18T16:34:51.589Z,93426.91
2023-02-18T16:36:26.225Z,93431.78
2023-02-18T16:37:58.366Z,93429.53
2023-02-18T16:39:31.331Z,93439.66
2023-02-18T16:41:03.167Z,93436.75
2023-02-18T16:42:35.592Z,93429.69
2023-02-18T16:44:11.279Z,93437.56
2023-02-18T16:45:49.763Z,93431.13
2023-02-18T16:47:22.008Z,93430.09
2023-02-18T16:48:55.882Z,93432.72
2023-02-18T16:50:28.048Z,93436.84
2023-02-18T16:52:00.517Z,93430.34
2023-02-18T16:53:32.222Z,93428.44
2023-02-18T16:55:06.197Z,93430.03
2023-02-18T16:56:37.951Z,93442.41
2023-02-18T16:58:10.031Z,93435.78
2023-02-18T16:59:41.878Z,93432.97
2023-02-18T17:01:41.790Z,93431.56
2023-02-18T17:03:13.814Z,93430.19
2023-02-18T17:04:45.710Z,93432.06
2023-02-18T17:06:17.643Z,93427.78
2023-02-18T17:07:49.786Z,93428.88
2023-02-18T17:09:23.011Z,93429.94
2023-02-18T17:10:55.582Z,93433.22
2023-02-18T17:12:27.283Z,93438.63
2023-02-18T17:13:59.554Z,93434.94
2023-02-18T17:15:33.047Z,93440.25
2023-02-18T17:20:21.256Z,93440.94
2023-02-18T17:21:53.863Z,93438.94
2023-02-18T17:23:25.556Z,93441.56
2023-02-18T17:24:57.596Z,93437.03
2023-02-18T17:26:30.068Z,93443.34
2023-02-18T17:28:02.126Z,93442.94
2023-02-18T17:29:33.878Z,93437.38
2023-02-18T17:31:06.008Z,93440.38
2023-02-18T17:32:37.877Z,93446.56
2023-02-18T17:34:10.186Z,93434.78
2023-02-18T17:35:41.830Z,93436.97
2023-02-18T17:37:14.138Z,93439.38
2023-02-18T17:38:45.974Z,93438.50
2023-02-18T17:40:18.356Z,93444.38
2023-02-18T17:41:50.046Z,93436.28
2023-02-18T17:43:25.433Z,93439.59
2023-02-18T17:44:57.364Z,93446.28
2023-02-18T17:46:29.220Z,93441.19
2023-02-18T17:48:01.000Z,93439.00
2023-02-18T17:49:33.069Z,93436.38
2023-02-18T17:51:06.544Z,93433.81
2023-02-18T17:52:38.826Z,93437.41
2023-02-18T17:54:14.797Z,93433.41
2023-02-18T17:55:47.521Z,93436.09
2023-02-18T17:57:19.318Z,93432.44
2023-02-18T17:58:51.343Z,93438.28
2023-02-18T18:00:43.277Z,93427.06
2023-02-18T18:02:24.238Z,93433.63
2023-02-18T18:03:55.897Z,93435.81
2023-02-18T18:05:28.984Z,93428.03
2023-02-18T18:07:01.210Z,93425.34
2023-02-18T18:08:33.325Z,93426.13
2023-02-18T18:10:05.111Z,93418.84
2023-02-18T18:11:37.144Z,93420.97
2023-02-18T18:13:10.120Z,93425.16
2023-02-18T18:14:42.174Z,93419.16
2023-02-18T18:16:14.610Z,93414.75
2023-02-18T18:17:46.349Z,93417.81
2023-02-18T18:19:18.272Z,93416.00
2023-02-18T18:20:54.164Z,93413.41
2023-02-18T18:22:25.858Z,93411.38
2023-02-18T18:23:57.472Z,93409.44
2023-02-18T18:25:39.521Z,93416.41
2023-02-18T18:27:11.370Z,93412.41
2023-02-18T18:28:43.191Z,93406.31
2023-02-18T18:30:14.956Z,93415.00
2023-02-18T18:31:47.046Z,93417.81
2023-02-18T18:33:23.276Z,93416.00
2023-02-18T18:34:54.865Z,93409.94
2023-02-18T18:36:26.604Z,93415.13
2023-02-18T18:37:58.527Z,93413.38
2023-02-18T18:39:30.421Z,93409.66
2023-02-18T18:41:03.281Z,93404.28